Time;durP1;ratioP1;P1;durP2;ratioP2;P2;SDS_P1;SDS_P2;PMS_P1;PMS_P2;Temp;Humidity;BMP_temperature;BMP_pressure;BME280_temperature;BME280_humidity;BME280_pressure;Samples;Min_cycle;Max_cycle;Signal;HPM_P1;HPM_P2
2021/08/17 00:00:26;;;;;;;42.58;16.48;;;14.20;99.90;;;;;;5034332;28;20913;-77
2021/08/17 00:02:52;;;;;;;46.22;15.90;;;14.30;99.90;;;;;;5034221;28;20669;-78
2021/08/17 00:05:17;;;;;;;40.13;15.23;;;14.30;99.90;;;;;;5034093;28;20286;-79
2021/08/17 00:07:43;;;;;;;40.50;16.48;;;14.30;99.90;;;;;;5034258;28;20179;-78
2021/08/17 00:10:10;;;;;;;43.45;17.13;;;14.30;99.90;;;;;;5039157;28;20251;-78
2021/08/17 00:12:35;;;;;;;47.47;16.98;;;14.30;99.90;;;;;;5046739;28;20164;-77
2021/08/17 00:15:02;;;;;;;41.63;16.23;;;14.20;99.90;;;;;;5045749;28;20168;-78
2021/08/17 00:17:27;;;;;;;48.75;17.23;;;14.10;99.90;;;;;;5043399;28;20283;-78
2021/08/17 00:19:53;;;;;;;51.58;16.70;;;14.10;99.90;;;;;;5033501;28;20687;-78
2021/08/17 00:22:22;;;;;;;39.03;16.75;;;14.00;99.90;;;;;;5033767;28;20175;-77
2021/08/17 00:24:52;;;;;;;44.08;16.60;;;14.20;99.90;;;;;;5032176;28;20581;-77
2021/08/17 00:27:18;;;;;;;46.70;18.17;;;14.30;99.90;;;;;;5033271;28;20196;-77
2021/08/17 00:29:44;;;;;;;50.60;17.23;;;14.30;99.90;;;;;;5033372;28;20534;-79
2021/08/17 00:32:10;;;;;;;42.70;16.13;;;14.30;99.90;;;;;;5033059;28;20549;-78
2021/08/17 00:34:36;;;;;;;42.45;16.70;;;14.20;99.90;;;;;;5033393;28;20250;-77
2021/08/17 00:37:02;;;;;;;39.33;15.98;;;14.20;99.90;;;;;;5033465;28;20196;-78
2021/08/17 00:39:27;;;;;;;41.83;16.15;;;14.30;99.90;;;;;;5033205;28;20297;-78
2021/08/17 00:41:53;;;;;;;47.30;17.55;;;14.40;99.90;;;;;;5033529;28;20164;-78
2021/08/17 00:44:26;;;;;;;44.53;16.48;;;14.30;99.90;;;;;;5033417;28;20196;-78
2021/08/17 00:46:56;;;;;;;43.78;16.38;;;14.00;99.90;;;;;;5033397;28;20737;-77
2021/08/17 00:49:23;;;;;;;48.58;16.63;;;14.00;99.90;;;;;;5033566;28;20164;-77
2021/08/17 00:51:54;;;;;;;42.90;17.65;;;14.00;99.90;;;;;;5033261;28;20635;-78
2021/08/17 00:54:21;;;;;;;46.47;16.92;;;14.00;99.90;;;;;;5033190;28;20160;-78
2021/08/17 00:56:47;;;;;;;48.10;15.55;;;14.10;99.90;;;;;;5032498;28;20571;-78
2021/08/17 00:59:14;;;;;;;41.40;17.35;;;13.90;99.90;;;;;;5033126;28;20175;-78
2021/08/17 01:01:41;;;;;;;42.50;16.20;;;13.90;99.90;;;;;;5032981;28;20632;-78
2021/08/17 01:04:08;;;;;;;44.17;17.10;;;13.90;99.90;;;;;;5033707;28;20160;-78
2021/08/17 01:06:35;;;;;;;43.70;17.30;;;14.00;99.90;;;;;;5033202;28;20210;-78
2021/08/17 01:09:01;;;;;;;46.80;17.38;;;14.10;99.90;;;;;;5033859;28;20191;-78
2021/08/17 01:11:27;;;;;;;48.30;17.30;;;14.20;99.90;;;;;;5034158;28;20176;-78
2021/08/17 01:13:53;;;;;;;53.17;17.38;;;14.20;99.90;;;;;;5034091;28;20168;-78
2021/08/17 01:16:20;;;;;;;51.65;17.55;;;14.20;99.90;;;;;;5032709;28;20198;-78
2021/08/17 01:18:47;;;;;;;41.83;15.98;;;14.10;99.90;;;;;;5032538;28;20175;-78
2021/08/17 01:21:13;;;;;;;48.45;17.63;;;14.00;99.90;;;;;;5032784;28;20164;-78
2021/08/17 01:23:39;;;;;;;47.00;18.08;;;14.00;99.90;;;;;;5032607;28;20164;-77
2021/08/17 01:26:05;;;;;;;51.92;18.02;;;13.80;99.90;;;;;;5032414;28;20215;-78
2021/08/17 01:28:31;;;;;;;58.95;19.10;;;13.80;99.90;;;;;;5032790;28;20254;-78
2021/08/17 01:31:01;;;;;;;49.78;18.52;;;13.80;99.90;;;;;;5032391;28;20250;-78
2021/08/17 01:33:28;;;;;;;40.58;18.08;;;13.80;99.90;;;;;;5032648;28;20168;-78
2021/08/17 01:35:54;;;;;;;57.78;19.08;;;13.80;99.90;;;;;;5032588;28;20184;-78
2021/08/17 01:38:19;;;;;;;45.72;17.35;;;13.90;99.90;;;;;;5032789;28;20647;-78
2021/08/17 01:40:45;;;;;;;45.00;18.40;;;13.70;99.90;;;;;;5032662;28;20239;-78
2021/08/17 01:43:11;;;;;;;52.03;18.95;;;13.60;99.90;;;;;;5032819;28;20167;-77
2021/08/17 01:45:36;;;;;;;60.78;18.80;;;13.70;99.90;;;;;;5032476;28;20207;-78
2021/08/17 01:48:02;;;;;;;61.13;18.80;;;14.00;99.90;;;;;;5032557;28;20175;-78
2021/08/17 01:50:28;;;;;;;56.92;18.75;;;14.10;99.90;;;;;;5032736;28;20301;-78
2021/08/17 01:52:54;;;;;;;58.67;18.05;;;14.10;99.90;;;;;;5032591;28;20191;-77
2021/08/17 01:55:20;;;;;;;48.75;17.80;;;14.00;99.90;;;;;;5032307;28;20172;-77
2021/08/17 01:57:46;;;;;;;51.67;17.77;;;13.80;99.90;;;;;;5032038;28;20160;-78
2021/08/17 02:00:13;;;;;;;51.13;18.50;;;13.80;99.90;;;;;;5032483;28;20160;-77
2021/08/17 02:02:39;;;;;;;47.83;18.45;;;13.90;99.90;;;;;;5032501;28;20175;-78
2021/08/17 02:05:05;;;;;;;47.80;17.65;;;13.90;99.90;;;;;;5032385;28;20171;-77
2021/08/17 02:07:31;;;;;;;66.05;19.90;;;13.90;99.90;;;;;;5031220;28;20701;-78
2021/08/17 02:09:57;;;;;;;47.92;18.25;;;13.50;99.90;;;;;;5032260;28;20168;-77
2021/08/17 02:12:22;;;;;;;61.05;18.70;;;13.50;99.90;;;;;;5032300;28;20210;-77
2021/08/17 02:14:48;;;;;;;52.17;19.15;;;13.70;99.90;;;;;;5032245;28;20218;-78
2021/08/17 02:17:14;;;;;;;50.08;16.25;;;13.90;99.90;;;;;;5032831;28;20175;-77
2021/08/17 02:19:39;;;;;;;45.75;17.67;;;14.00;99.90;;;;;;5035792;28;20244;-77
2021/08/17 02:22:05;;;;;;;52.60;19.08;;;13.90;99.90;;;;;;5036332;28;20175;-78
2021/08/17 02:24:31;;;;;;;57.58;18.40;;;13.90;99.90;;;;;;5035994;28;20718;-78
2021/08/17 02:26:56;;;;;;;44.92;17.83;;;13.90;99.90;;;;;;5035252;28;20215;-78
2021/08/17 02:29:22;;;;;;;45.42;17.42;;;13.90;99.90;;;;;;5035687;28;20172;-78
2021/08/17 02:31:48;;;;;;;57.05;19.45;;;13.90;99.90;;;;;;5034585;28;20176;-78
2021/08/17 02:34:14;;;;;;;52.33;18.20;;;14.00;99.90;;;;;;5035908;28;20171;-78
2021/08/17 02:36:40;;;;;;;54.75;17.30;;;14.10;99.90;;;;;;5035881;28;20188;-78
2021/08/17 02:39:05;;;;;;;47.63;18.25;;;14.20;99.90;;;;;;5035746;28;20179;-78
2021/08/17 02:41:31;;;;;;;60.20;18.10;;;14.00;99.90;;;;;;5035672;28;20167;-78
2021/08/17 02:43:57;;;;;;;45.30;17.05;;;14.00;99.90;;;;;;5035531;28;20160;-78
2021/08/17 02:46:23;;;;;;;46.85;17.83;;;13.90;99.90;;;;;;5035313;28;20290;-78
2021/08/17 02:48:48;;;;;;;51.33;18.08;;;13.90;99.90;;;;;;5035495;28;20899;-78
2021/08/17 02:51:15;;;;;;;62.55;19.10;;;14.00;99.90;;;;;;5035199;28;20167;-77
2021/08/17 02:53:40;;;;;;;49.28;17.15;;;14.10;99.90;;;;;;5035577;28;20164;-78
2021/08/17 02:56:06;;;;;;;40.97;17.08;;;14.20;99.90;;;;;;5035152;28;20589;-78
2021/08/17 02:58:32;;;;;;;50.20;18.02;;;14.30;99.90;;;;;;5035543;28;20165;-80
2021/08/17 03:00:58;;;;;;;51.78;18.88;;;14.20;99.90;;;;;;5035585;28;20180;-78
2021/08/17 03:03:23;;;;;;;47.08;17.73;;;14.30;99.90;;;;;;5035107;28;20593;-78
2021/08/17 03:05:49;;;;;;;55.13;16.75;;;14.20;99.90;;;;;;5035101;28;20221;-78
2021/08/17 03:08:15;;;;;;;43.08;17.42;;;14.30;99.90;;;;;;5035178;28;20686;-78
2021/08/17 03:10:41;;;;;;;49.25;17.67;;;14.40;99.90;;;;;;5035124;28;20689;-77
2021/08/17 03:13:07;;;;;;;48.60;16.88;;;14.20;99.90;;;;;;5034816;28;20171;-78
2021/08/17 03:15:33;;;;;;;51.17;18.73;;;14.10;99.90;;;;;;5035173;28;20715;-77
2021/08/17 03:18:07;;;;;;;52.72;18.73;;;14.30;99.90;;;;;;5035025;28;20250;-78
2021/08/17 03:20:34;;;;;;;47.95;18.73;;;14.30;99.90;;;;;;5034966;28;20251;-78
2021/08/17 03:23:02;;;;;;;46.85;16.92;;;14.30;99.90;;;;;;5035582;28;20199;-78
2021/08/17 03:25:29;;;;;;;51.70;18.00;;;14.40;99.90;;;;;;5034762;28;20286;-78
2021/08/17 03:27:55;;;;;;;45.80;17.30;;;14.50;99.90;;;;;;5034411;28;20182;-78
2021/08/17 03:30:23;;;;;;;44.63;18.25;;;14.40;99.90;;;;;;5033611;28;20172;-77
2021/08/17 03:32:48;;;;;;;61.35;18.95;;;14.40;99.90;;;;;;5034560;28;20250;-77
2021/08/17 03:35:15;;;;;;;47.28;17.58;;;14.50;99.90;;;;;;5034511;28;20243;-77
2021/08/17 03:37:41;;;;;;;44.67;16.85;;;14.50;99.90;;;;;;5034434;28;20211;-78
2021/08/17 03:40:09;;;;;;;46.70;17.42;;;14.50;99.90;;;;;;5034645;28;20594;-78
2021/08/17 03:42:37;;;;;;;44.47;15.68;;;14.50;99.90;;;;;;5034754;28;20168;-78
2021/08/17 03:45:04;;;;;;;49.75;15.77;;;14.50;99.90;;;;;;5034329;28;20176;-77
2021/08/17 03:47:30;;;;;;;55.53;18.58;;;14.50;99.90;;;;;;5034183;28;20180;-78
2021/08/17 03:49:55;;;;;;;54.80;18.48;;;14.50;99.90;;;;;;5034535;28;20913;-78
2021/08/17 03:52:21;;;;;;;44.88;16.08;;;14.60;99.90;;;;;;5034413;28;20164;-77
2021/08/17 03:54:47;;;;;;;45.15;16.88;;;14.70;99.90;;;;;;5034240;28;20200;-78
2021/08/17 03:57:12;;;;;;;39.40;15.48;;;14.70;99.90;;;;;;5034144;28;20180;-78
2021/08/17 03:59:38;;;;;;;44.15;16.95;;;14.60;99.90;;;;;;5034139;28;20694;-77
2021/08/17 04:02:04;;;;;;;52.78;16.92;;;14.50;99.90;;;;;;5034125;28;20164;-79
2021/08/17 04:04:29;;;;;;;45.33;16.42;;;14.60;99.90;;;;;;5032756;28;20176;-77
2021/08/17 04:06:55;;;;;;;42.47;16.63;;;14.60;99.90;;;;;;5033925;28;20235;-78
2021/08/17 04:09:20;;;;;;;38.50;16.10;;;14.60;99.90;;;;;;5033003;28;20270;-79
2021/08/17 04:11:46;;;;;;;39.40;15.93;;;14.60;99.90;;;;;;5034233;28;20176;-78
2021/08/17 04:14:12;;;;;;;43.33;15.75;;;14.60;99.90;;;;;;5034369;28;20172;-77
2021/08/17 04:16:37;;;;;;;38.70;15.32;;;14.70;99.90;;;;;;5034959;28;20183;-80
2021/08/17 04:19:03;;;;;;;42.78;15.13;;;14.70;99.90;;;;;;5034855;28;20194;-77
2021/08/17 04:21:29;;;;;;;54.60;16.73;;;14.70;99.90;;;;;;5034352;28;20543;-77
2021/08/17 04:23:57;;;;;;;40.75;16.17;;;14.60;99.90;;;;;;5034550;28;20251;-78
2021/08/17 04:26:23;;;;;;;45.20;15.88;;;14.60;99.90;;;;;;5032424;28;20211;-78
2021/08/17 04:28:48;;;;;;;42.50;15.55;;;14.50;99.90;;;;;;5034447;28;20196;-78
2021/08/17 04:31:14;;;;;;;45.97;17.08;;;14.50;99.90;;;;;;5034116;28;20203;-78
2021/08/17 04:33:39;;;;;;;47.05;16.27;;;14.50;99.90;;;;;;5034506;28;20210;-78
2021/08/17 04:36:05;;;;;;;43.97;16.02;;;14.50;99.90;;;;;;5033840;28;20188;-78
2021/08/17 04:38:31;;;;;;;50.05;16.95;;;14.50;99.90;;;;;;5033830;28;20164;-78
2021/08/17 04:40:56;;;;;;;51.53;16.77;;;14.50;99.90;;;;;;5033771;28;20172;-78
2021/08/17 04:43:22;;;;;;;43.03;16.02;;;14.20;99.90;;;;;;5032186;28;20168;-78
2021/08/17 04:45:49;;;;;;;46.42;17.33;;;14.20;99.90;;;;;;5033320;28;20212;-77
2021/08/17 04:48:15;;;;;;;38.38;16.15;;;14.40;99.90;;;;;;5033433;28;20539;-78
2021/08/17 04:50:40;;;;;;;39.38;15.43;;;14.60;99.90;;;;;;5033180;28;20168;-77
2021/08/17 04:53:06;;;;;;;45.65;16.23;;;14.60;99.90;;;;;;5033430;28;20164;-77
2021/08/17 04:55:32;;;;;;;38.45;15.13;;;14.40;99.90;;;;;;5032487;28;20196;-78
2021/08/17 04:57:59;;;;;;;49.47;15.95;;;14.50;99.90;;;;;;5033089;28;20278;-78
2021/08/17 05:00:29;;;;;;;39.67;15.30;;;14.60;99.90;;;;;;5033178;28;20171;-77
2021/08/17 05:02:55;;;;;;;43.53;15.38;;;14.50;99.90;;;;;;5033606;28;20214;-77
2021/08/17 05:05:21;;;;;;;51.97;16.92;;;14.40;99.90;;;;;;5032941;28;20227;-78
2021/08/17 05:07:49;;;;;;;44.20;15.50;;;14.40;99.90;;;;;;5034122;28;20175;-78
2021/08/17 05:10:16;;;;;;;50.22;14.75;;;14.50;99.90;;;;;;5034934;28;20206;-77
2021/08/17 05:12:42;;;;;;;41.28;15.25;;;14.50;99.90;;;;;;5034053;28;20164;-81
2021/08/17 05:15:11;;;;;;;32.25;14.05;;;14.40;99.90;;;;;;5034295;28;20163;-78
2021/08/17 05:17:36;;;;;;;39.83;15.02;;;14.40;99.90;;;;;;5034288;28;20168;-77
2021/08/17 05:20:04;;;;;;;40.00;15.65;;;14.30;99.90;;;;;;5033562;28;20190;-78
2021/08/17 05:22:31;;;;;;;38.47;15.32;;;14.00;99.90;;;;;;5032764;28;20176;-77
2021/08/17 05:24:57;;;;;;;40.00;15.80;;;14.10;99.90;;;;;;5033425;28;20251;-78
2021/08/17 05:27:22;;;;;;;36.22;14.05;;;14.40;99.90;;;;;;5033852;28;20301;-78
2021/08/17 05:29:51;;;;;;;38.95;14.10;;;14.50;99.90;;;;;;5034192;28;20535;-77
2021/08/17 05:32:18;;;;;;;49.67;15.52;;;14.80;99.90;;;;;;5033673;28;20168;-80
2021/08/17 05:34:43;;;;;;;39.13;14.90;;;14.90;99.90;;;;;;5032912;28;20186;-76
2021/08/17 05:37:09;;;;;;;34.13;14.77;;;15.00;99.90;;;;;;5031416;28;20191;-77
2021/08/17 05:39:34;;;;;;;37.47;14.95;;;15.00;99.90;;;;;;5032227;28;20174;-77
2021/08/17 05:42:00;;;;;;;41.45;15.65;;;15.00;99.90;;;;;;5032269;28;20246;-78
2021/08/17 05:44:26;;;;;;;27.38;13.73;;;14.90;99.90;;;;;;5032223;28;20204;-78
2021/08/17 05:46:51;;;;;;;29.35;12.57;;;14.90;99.90;;;;;;5031924;28;20237;-77
2021/08/17 05:49:17;;;;;;;35.08;15.25;;;14.80;99.90;;;;;;5032345;28;20171;-78
2021/08/17 05:51:43;;;;;;;34.78;13.85;;;15.00;99.90;;;;;;5033576;28;20168;-77
2021/08/17 05:54:08;;;;;;;34.63;14.60;;;15.20;99.90;;;;;;5038875;28;20168;-77
2021/08/17 05:56:34;;;;;;;36.20;13.68;;;15.10;99.90;;;;;;5038717;28;20663;-77
2021/08/17 05:58:59;;;;;;;29.70;12.98;;;15.10;99.90;;;;;;5038644;28;20218;-77
2021/08/17 06:01:25;;;;;;;39.97;13.48;;;14.90;99.90;;;;;;5038955;28;20232;-77
2021/08/17 06:03:51;;;;;;;33.28;14.57;;;14.90;99.90;;;;;;5038749;28;20163;-77
2021/08/17 06:06:17;;;;;;;30.55;12.10;;;15.00;99.90;;;;;;5038518;28;20571;-78
2021/08/17 06:08:42;;;;;;;31.27;11.95;;;15.00;99.90;;;;;;5038493;28;20168;-79
2021/08/17 06:11:08;;;;;;;41.42;14.55;;;15.10;99.90;;;;;;5038301;28;20198;-79
2021/08/17 06:13:34;;;;;;;30.52;14.13;;;15.30;99.90;;;;;;5036900;28;20167;-78
2021/08/17 06:15:59;;;;;;;30.38;12.63;;;15.20;99.90;;;;;;5037307;28;20556;-78
2021/08/17 06:18:25;;;;;;;38.97;13.18;;;15.30;99.90;;;;;;5038145;28;20309;-78
2021/08/17 06:20:51;;;;;;;36.45;13.65;;;15.20;99.90;;;;;;5038511;28;20182;-78
2021/08/17 06:23:16;;;;;;;41.78;14.45;;;15.10;99.90;;;;;;5038315;28;20175;-78
2021/08/17 06:25:42;;;;;;;31.10;13.77;;;15.00;99.90;;;;;;5038023;28;20195;-78
2021/08/17 06:28:10;;;;;;;31.23;12.35;;;15.10;99.90;;;;;;5038234;28;20175;-78
2021/08/17 06:30:36;;;;;;;33.17;12.95;;;15.40;99.90;;;;;;5038364;28;20164;-79
2021/08/17 06:33:02;;;;;;;32.10;13.38;;;15.40;99.90;;;;;;5037050;28;20180;-79
2021/08/17 06:35:28;;;;;;;33.90;12.70;;;15.30;99.90;;;;;;5038485;28;20188;-79
2021/08/17 06:37:54;;;;;;;28.10;12.32;;;15.30;99.90;;;;;;5038224;28;20619;-78
2021/08/17 06:40:20;;;;;;;35.15;14.20;;;15.30;99.90;;;;;;5038289;28;20511;-80
2021/08/17 06:42:46;;;;;;;30.65;13.32;;;15.50;99.90;;;;;;5038159;28;20246;-79
2021/08/17 06:45:12;;;;;;;29.33;12.98;;;15.70;99.90;;;;;;5036937;28;20171;-78
2021/08/17 06:47:46;;;;;;;31.88;11.48;;;15.70;99.90;;;;;;5038904;28;20171;-80
2021/08/17 06:50:12;;;;;;;32.53;12.40;;;15.80;99.90;;;;;;5038580;28;20190;-79
2021/08/17 06:52:37;;;;;;;26.05;12.52;;;16.10;99.90;;;;;;5038876;28;20168;-78
2021/08/17 06:55:03;;;;;;;27.05;12.95;;;16.10;99.90;;;;;;5038802;28;20174;-78
2021/08/17 06:57:29;;;;;;;30.80;11.27;;;16.40;99.90;;;;;;5037024;28;20975;-78
2021/08/17 06:59:55;;;;;;;28.58;12.63;;;16.60;99.90;;;;;;5038283;28;20176;-77
2021/08/17 07:02:20;;;;;;;28.23;11.68;;;16.60;99.90;;;;;;5038651;28;20207;-78
2021/08/17 07:04:46;;;;;;;35.15;11.82;;;16.30;99.90;;;;;;5034666;28;20191;-77
2021/08/17 07:07:11;;;;;;;30.60;11.55;;;16.20;99.90;;;;;;5035357;28;20685;-77
2021/08/17 07:09:37;;;;;;;34.35;11.00;;;16.30;99.90;;;;;;5024157;28;20329;-76
2021/08/17 07:12:03;;;;;;;30.70;11.13;;;16.20;99.90;;;;;;5014553;28;20179;-78
2021/08/17 07:14:29;;;;;;;21.38;10.57;;;16.30;99.90;;;;;;5013946;28;20175;-77
2021/08/17 07:16:54;;;;;;;27.52;11.30;;;16.20;99.90;;;;;;5015580;28;20500;-78
2021/08/17 07:19:20;;;;;;;26.63;11.52;;;16.30;99.90;;;;;;5031433;28;20195;-78
2021/08/17 07:21:45;;;;;;;25.50;11.20;;;16.50;99.90;;;;;;5034230;28;20175;-79
2021/08/17 07:24:11;;;;;;;33.80;11.88;;;16.70;99.90;;;;;;5034984;28;20577;-80
2021/08/17 07:26:37;;;;;;;24.63;10.88;;;16.40;99.90;;;;;;5034027;28;20571;-78
2021/08/17 07:29:03;;;;;;;25.45;10.43;;;16.50;99.90;;;;;;5035448;28;20218;-79
2021/08/17 07:31:30;;;;;;;16.42;9.80;;;16.80;99.90;;;;;;5035151;28;20172;-81
2021/08/17 07:33:56;;;;;;;19.52;10.32;;;17.10;99.90;;;;;;5035262;28;20686;-82
2021/08/17 07:36:22;;;;;;;22.30;10.90;;;17.50;99.90;;;;;;5050684;28;20196;-81
2021/08/17 07:38:48;;;;;;;21.85;10.32;;;17.60;99.90;;;;;;5050617;28;20644;-79
2021/08/17 07:41:13;;;;;;;18.42;9.57;;;17.60;99.90;;;;;;5035271;28;20244;-79
2021/08/17 07:43:39;;;;;;;24.15;10.82;;;17.60;99.90;;;;;;5035037;28;20172;-80
2021/08/17 07:46:05;;;;;;;19.52;9.32;;;17.80;99.90;;;;;;5034771;28;20205;-78
2021/08/17 07:48:31;;;;;;;20.98;10.05;;;17.90;99.90;;;;;;5034597;28;20183;-79
2021/08/17 07:50:57;;;;;;;21.60;9.50;;;18.00;99.90;;;;;;5035127;28;20219;-80
2021/08/17 07:53:22;;;;;;;13.05;8.43;;;18.10;99.90;;;;;;5031940;28;20186;-77
2021/08/17 07:56:01;;;;;;;24.70;9.65;;;18.10;99.90;;;;;;5019504;28;20201;-79
2021/08/17 07:58:26;;;;;;;20.73;8.63;;;18.20;99.90;;;;;;5013366;28;20229;-77
2021/08/17 08:00:52;;;;;;;15.45;8.77;;;18.30;99.90;;;;;;5031376;28;20175;-77
2021/08/17 08:03:19;;;;;;;22.80;9.60;;;18.40;99.90;;;;;;5030303;28;20168;-77
2021/08/17 08:05:44;;;;;;;13.80;8.32;;;18.30;99.90;;;;;;5030365;28;20196;-78
2021/08/17 08:08:10;;;;;;;14.35;8.95;;;18.30;99.90;;;;;;5026711;28;20551;-77
2021/08/17 08:10:35;;;;;;;19.27;9.27;;;18.50;99.90;;;;;;5012493;28;20203;-78
2021/08/17 08:13:01;;;;;;;17.73;7.72;;;18.70;99.90;;;;;;5012900;28;20160;-77
2021/08/17 08:15:27;;;;;;;10.77;7.85;;;18.60;99.90;;;;;;5012067;28;20259;-81
2021/08/17 08:17:52;;;;;;;14.98;7.28;;;18.60;99.90;;;;;;5013223;28;20172;-77
2021/08/17 08:20:20;;;;;;;15.80;8.13;;;18.60;99.90;;;;;;5012580;28;20199;-77
2021/08/17 08:22:46;;;;;;;12.45;7.68;;;18.50;99.90;;;;;;5011585;28;20192;-76
2021/08/17 08:25:12;;;;;;;23.92;8.98;;;18.70;99.90;;;;;;5012344;28;20173;-76
2021/08/17 08:27:38;;;;;;;16.33;7.97;;;18.60;99.90;;;;;;5012982;28;20175;-78
2021/08/17 08:30:06;;;;;;;16.30;7.50;;;18.50;99.90;;;;;;5012061;28;20244;-77
2021/08/17 08:32:31;;;;;;;16.25;7.32;;;18.30;99.90;;;;;;5012044;28;20172;-77
2021/08/17 08:34:57;;;;;;;12.95;8.10;;;18.30;99.90;;;;;;5012757;28;20168;-77
2021/08/17 08:37:23;;;;;;;17.73;7.22;;;18.40;99.90;;;;;;5013734;28;20192;-77
2021/08/17 08:39:48;;;;;;;10.40;7.13;;;17.90;99.90;;;;;;5013909;28;20165;-76
2021/08/17 08:42:14;;;;;;;12.50;7.32;;;17.70;99.90;;;;;;5013298;28;20629;-76
2021/08/17 08:44:40;;;;;;;14.23;7.00;;;17.80;99.90;;;;;;5013719;28;20184;-78
2021/08/17 08:47:05;;;;;;;7.93;6.22;;;17.90;99.90;;;;;;5012866;28;20216;-77
2021/08/17 08:49:32;;;;;;;14.25;7.82;;;18.10;99.90;;;;;;5013237;28;20644;-80
2021/08/17 08:52:00;;;;;;;9.80;6.70;;;18.30;99.90;;;;;;5013230;28;20176;-77
2021/08/17 08:54:26;;;;;;;9.38;6.47;;;18.50;99.90;;;;;;5030474;28;20655;-77
2021/08/17 08:56:52;;;;;;;13.10;7.18;;;18.60;99.90;;;;;;5032221;28;20194;-77
2021/08/17 08:59:18;;;;;;;10.27;6.65;;;18.80;99.90;;;;;;5032530;28;20683;-77
2021/08/17 09:01:47;;;;;;;15.45;7.45;;;18.70;99.90;;;;;;5031663;28;20238;-77
2021/08/17 09:04:15;;;;;;;17.27;6.80;;;18.60;99.90;;;;;;5030570;28;20163;-77
2021/08/17 09:06:52;;;;;;;10.90;7.30;;;18.40;99.90;;;;;;5031717;28;20215;-78
2021/08/17 09:09:18;;;;;;;17.63;7.53;;;18.40;99.90;;;;;;5032154;28;20174;-78
2021/08/17 09:11:53;;;;;;;14.85;8.13;;;18.80;99.90;;;;;;5020693;28;20176;-78
2021/08/17 09:14:23;;;;;;;14.27;6.95;;;19.00;99.90;;;;;;5011375;28;20171;-78
2021/08/17 09:16:53;;;;;;;11.15;6.25;;;18.60;99.90;;;;;;5012292;28;20188;-78
2021/08/17 09:19:25;;;;;;;11.13;6.32;;;18.30;99.90;;;;;;5011286;28;20606;-78
2021/08/17 09:21:53;;;;;;;11.98;6.65;;;18.20;99.90;;;;;;5012686;28;20172;-78
2021/08/17 09:24:20;;;;;;;11.60;6.07;;;18.30;99.90;;;;;;5012267;28;20168;-78
2021/08/17 09:26:48;;;;;;;17.60;7.78;;;18.70;99.90;;;;;;5011549;28;20715;-78
2021/08/17 09:29:23;;;;;;;10.43;6.40;;;19.00;99.90;;;;;;5012720;28;20180;-78
2021/08/17 09:31:51;;;;;;;6.90;5.30;;;19.30;99.90;;;;;;5012854;28;20267;-78
2021/08/17 09:34:18;;;;;;;9.07;6.85;;;19.60;99.90;;;;;;5012998;28;20873;-78
2021/08/17 09:36:45;;;;;;;8.40;5.32;;;19.70;99.90;;;;;;5012938;28;20185;-78
2021/08/17 09:39:25;;;;;;;13.63;6.93;;;19.50;99.90;;;;;;5013296;28;20651;-78
2021/08/17 09:41:51;;;;;;;11.57;4.78;;;19.50;99.90;;;;;;5013304;28;20651;-78
2021/08/17 09:44:20;;;;;;;10.30;5.43;;;19.60;99.90;;;;;;5013150;28;20244;-78
2021/08/17 09:46:46;;;;;;;11.70;5.13;;;19.60;99.90;;;;;;5012758;28;20585;-78
2021/08/17 09:49:20;;;;;;;13.98;5.93;;;19.80;99.90;;;;;;5012803;28;20164;-78
2021/08/17 09:51:46;;;;;;;7.90;4.85;;;19.60;99.90;;;;;;5012901;28;20226;-78
2021/08/17 09:54:14;;;;;;;11.93;5.30;;;19.00;99.90;;;;;;5013044;28;20161;-78
2021/08/17 09:56:41;;;;;;;7.43;5.40;;;18.90;99.90;;;;;;5012584;28;20189;-78
2021/08/17 09:59:07;;;;;;;8.80;4.57;;;18.90;99.90;;;;;;5012858;28;20161;-78
2021/08/17 10:01:33;;;;;;;7.70;4.57;;;18.90;99.90;;;;;;5012823;28;20161;-78
2021/08/17 10:03:59;;;;;;;16.23;4.82;;;19.00;99.90;;;;;;5011173;28;20258;-78
2021/08/17 10:06:28;;;;;;;8.48;4.47;;;18.90;99.90;;;;;;5012565;28;20695;-78
2021/08/17 10:08:57;;;;;;;9.02;4.57;;;18.80;99.90;;;;;;5013105;28;20165;-78
2021/08/17 10:11:23;;;;;;;5.63;4.28;;;18.70;99.90;;;;;;5012735;28;20306;-78
2021/08/17 10:13:50;;;;;;;7.97;3.97;;;18.50;99.90;;;;;;5013905;28;20248;-78
2021/08/17 10:16:17;;;;;;;8.88;4.65;;;18.30;99.90;;;;;;5013902;28;20204;-78
2021/08/17 10:18:44;;;;;;;10.90;4.30;;;18.10;99.90;;;;;;5013522;28;20268;-79
2021/08/17 10:21:11;;;;;;;13.95;5.68;;;17.90;99.90;;;;;;5012927;28;20161;-79
2021/08/17 10:23:42;;;;;;;8.50;5.07;;;17.80;99.90;;;;;;5015345;28;20173;-80
2021/08/17 10:26:08;;;;;;;7.35;4.55;;;17.70;99.90;;;;;;5014199;28;20231;-79
2021/08/17 10:28:40;;;;;;;8.25;4.18;;;17.80;99.90;;;;;;5013988;28;20640;-79
2021/08/17 10:31:21;;;;;;;5.32;4.30;;;17.90;99.90;;;;;;5013572;28;20168;-79
2021/08/17 10:34:11;;;;;;;7.35;4.43;;;18.10;99.90;;;;;;5013174;28;20283;-79
2021/08/17 10:36:45;;;;;;;6.75;4.10;;;18.20;99.90;;;;;;5012260;28;20552;-80
2021/08/17 10:39:17;;;;;;;8.88;4.10;;;18.30;99.90;;;;;;5014801;28;20637;-80
2021/08/17 10:41:44;;;;;;;10.30;4.75;;;18.30;99.90;;;;;;5014148;28;20268;-80
2021/08/17 10:44:12;;;;;;;6.30;4.80;;;18.40;99.90;;;;;;5016334;28;20169;-79
2021/08/17 10:46:43;;;;;;;4.50;4.10;;;18.30;99.90;;;;;;5015787;28;20291;-80
2021/08/17 10:49:31;;;;;;;5.22;3.78;;;18.40;99.90;;;;;;5015932;28;20160;-80
2021/08/17 10:52:05;;;;;;;5.50;4.03;;;18.50;99.90;;;;;;5015527;28;20168;-80
2021/08/17 10:54:33;;;;;;;8.10;4.38;;;18.50;99.90;;;;;;5015802;28;20168;-79
2021/08/17 10:57:25;;;;;;;10.80;4.50;;;18.50;99.90;;;;;;5015367;28;20560;-79
2021/08/17 10:59:51;;;;;;;5.80;3.88;;;18.40;99.90;;;;;;5015246;28;20304;-79
2021/08/17 11:02:23;;;;;;;9.70;4.93;;;18.10;99.90;;;;;;5015937;28;20175;-79
2021/08/17 11:04:50;;;;;;;7.65;4.28;;;17.90;99.90;;;;;;5016602;28;20263;-79
2021/08/17 11:07:22;;;;;;;5.40;4.05;;;17.80;99.90;;;;;;5015377;28;20287;-79
2021/08/17 11:09:48;;;;;;;8.02;4.53;;;17.80;99.90;;;;;;5015712;28;20199;-80
2021/08/17 11:12:14;;;;;;;8.50;4.57;;;17.80;99.90;;;;;;5014752;28;20615;-80
2021/08/17 11:14:42;;;;;;;8.80;5.28;;;17.80;99.90;;;;;;5015884;28;20236;-83
2021/08/17 11:17:13;;;;;;;9.02;4.88;;;17.80;99.90;;;;;;5014778;28;20189;-79
2021/08/17 11:19:45;;;;;;;6.50;4.22;;;17.70;99.90;;;;;;5015834;28;20258;-80
2021/08/17 11:22:24;;;;;;;6.05;4.70;;;17.70;99.90;;;;;;5014454;28;20624;-78
2021/08/17 11:24:53;;;;;;;8.30;4.93;;;17.70;99.90;;;;;;5015405;28;20526;-79
2021/08/17 11:27:23;;;;;;;7.68;4.75;;;17.80;99.90;;;;;;5015266;28;20730;-80
2021/08/17 11:29:57;;;;;;;7.28;5.28;;;17.70;99.90;;;;;;5015461;28;20195;-81
2021/08/17 11:32:26;;;;;;;9.07;4.28;;;17.90;99.90;;;;;;5014765;28;20184;-78
2021/08/17 11:34:52;;;;;;;10.98;4.43;;;18.00;99.90;;;;;;5015176;28;20252;-81
2021/08/17 11:37:18;;;;;;;8.85;5.15;;;17.90;99.90;;;;;;5015102;28;20318;-79
2021/08/17 11:39:55;;;;;;;8.60;5.57;;;17.80;99.90;;;;;;5014745;28;20179;-80
2021/08/17 11:42:23;;;;;;;7.40;4.93;;;17.90;99.90;;;;;;5013666;28;20628;-80
2021/08/17 11:45:00;;;;;;;7.55;5.55;;;18.20;99.90;;;;;;5014681;28;20164;-80
2021/08/17 11:47:27;;;;;;;8.25;4.25;;;18.40;99.90;;;;;;5013664;28;20223;-80
2021/08/17 11:49:55;;;;;;;5.70;4.05;;;18.40;99.90;;;;;;5013013;28;20184;-80
2021/08/17 11:52:34;;;;;;;5.60;4.30;;;18.30;99.90;;;;;;5014682;28;20176;-81
2021/08/17 11:55:21;;;;;;;6.72;4.20;;;18.50;99.90;;;;;;5013128;28;20171;-81
2021/08/17 11:57:48;;;;;;;4.55;4.13;;;18.50;99.90;;;;;;5014709;28;20256;-80
2021/08/17 12:00:28;;;;;;;5.30;3.10;;;18.20;99.90;;;;;;5014380;28;20168;-81
2021/08/17 12:02:58;;;;;;;5.07;3.58;;;18.00;99.90;;;;;;5014285;28;20183;-84
2021/08/17 12:05:26;;;;;;;6.32;4.00;;;18.10;99.90;;;;;;5014399;28;20667;-80
2021/08/17 12:07:53;;;;;;;6.10;3.80;;;18.20;99.90;;;;;;5014304;28;20173;-80
2021/08/17 12:10:39;;;;;;;4.85;4.00;;;18.20;99.90;;;;;;5014161;28;20204;-80
2021/08/17 12:13:11;;;;;;;5.35;3.83;;;18.20;99.90;;;;;;5012627;28;20168;-80
2021/08/17 12:15:41;;;;;;;6.63;2.97;;;18.20;99.90;;;;;;5013931;28;20189;-81
2021/08/17 12:18:16;;;;;;;6.65;3.60;;;18.20;99.90;;;;;;5014166;28;20208;-80
2021/08/17 12:21:11;;;;;;;6.47;3.63;;;18.10;99.90;;;;;;5014048;28;20270;-80
2021/08/17 12:23:46;;;;;;;4.65;3.40;;;18.20;99.90;;;;;;5009181;28;20189;-80
2021/08/17 12:26:29;;;;;;;6.13;3.72;;;18.30;99.90;;;;;;5013528;28;20216;-80
2021/08/17 12:28:56;;;;;;;4.07;3.00;;;18.30;99.90;;;;;;5012748;28;20168;-81
2021/08/17 12:31:29;;;;;;;5.22;3.50;;;18.20;99.90;;;;;;5013621;28;20176;-80
2021/08/17 12:33:57;;;;;;;5.80;3.53;;;18.30;99.90;;;;;;5013375;28;20171;-80